DAL6624 KLAX-KLAS
Flight info
| Callsign | DAL6624 |
|---|---|
| Flight time | 0h 41m |
| Altitude | 27000 |
| Route | ORCKA5 MISEN RNDRZ4 |
| Aircraft | A320/M-SDE3FGHIRWY/LB1 |
Departure
| Time | 2026-05-04 18:25 |
|---|---|
| Airport | Los Angeles International Airport (KLAX) |
Arrival
| Time | 2026-05-04 19:06 |
|---|---|
| Airport | Harry Reid International Airport (KLAS) |
| Time | Latitude | Longitude | Altitude | Speed | Heading |
|---|---|---|---|---|---|
| 2026-05-04 17:48 | 33.94638 | -118.40839 | 122 ft | 0 kts | 86° |
| 2026-05-04 18:17 | 33.94629 | -118.40887 | 121 ft | 4 kts | 49° |
| 2026-05-04 18:17 | 33.94611 | -118.40900 | 120 ft | 2 kts | 354° |
| 2026-05-04 18:17 | 33.94609 | -118.40900 | 120 ft | 0 kts | 353° |
| 2026-05-04 18:21 | 33.94611 | -118.40900 | 120 ft | 3 kts | 353° |
| 2026-05-04 18:21 | 33.94672 | -118.40909 | 126 ft | 15 kts | 353° |
| 2026-05-04 18:22 | 33.94774 | -118.40899 | 122 ft | 14 kts | 24° |
| 2026-05-04 18:22 | 33.94836 | -118.40829 | 124 ft | 12 kts | 71° |
| 2026-05-04 18:22 | 33.94850 | -118.40732 | 124 ft | 13 kts | 82° |
| 2026-05-04 18:22 | 33.94866 | -118.40594 | 126 ft | 18 kts | 82° |
| 2026-05-04 18:23 | 33.94881 | -118.40451 | 123 ft | 17 kts | 84° |
| 2026-05-04 18:23 | 33.94893 | -118.40317 | 123 ft | 15 kts | 84° |
| 2026-05-04 18:23 | 33.94904 | -118.40195 | 122 ft | 14 kts | 84° |
| 2026-05-04 18:23 | 33.94919 | -118.40096 | 124 ft | 10 kts | 63° |
| 2026-05-04 18:24 | 33.94973 | -118.40062 | 123 ft | 9 kts | 353° |
| 2026-05-04 18:24 | 33.95017 | -118.40095 | 122 ft | 7 kts | 298° |
| 2026-05-04 18:24 | 33.95020 | -118.40137 | 123 ft | 0 kts | 267° |
| 2026-05-04 18:24 | 33.95019 | -118.40147 | 123 ft | 11 kts | 265° |
| 2026-05-04 18:25 | 33.94974 | -118.40566 | 122 ft | 86 kts | 263° |
| 2026-05-04 18:25 | 33.94874 | -118.41539 | 123 ft | 143 kts | 263° |
| 2026-05-04 18:25 | 33.94735 | -118.42829 | 517 ft | 159 kts | 261° |
| 2026-05-04 18:25 | 33.94574 | -118.44174 | 1172 ft | 164 kts | 260° |
| 2026-05-04 18:26 | 33.94406 | -118.45538 | 1964 ft | 165 kts | 260° |
| 2026-05-04 18:26 | 33.94233 | -118.46959 | 2526 ft | 179 kts | 262° |
| 2026-05-04 18:26 | 33.94051 | -118.48511 | 3017 ft | 197 kts | 262° |
| 2026-05-04 18:26 | 33.93846 | -118.50257 | 3337 ft | 225 kts | 262° |
| 2026-05-04 18:27 | 33.93620 | -118.52211 | 3874 ft | 244 kts | 263° |
| 2026-05-04 18:27 | 33.93260 | -118.54243 | 4702 ft | 252 kts | 248° |
| 2026-05-04 18:27 | 33.92219 | -118.55960 | 5606 ft | 261 kts | 221° |
| 2026-05-04 18:27 | 33.90570 | -118.56906 | 6501 ft | 272 kts | 192° |
| 2026-05-04 18:28 | 33.88664 | -118.56731 | 7329 ft | 284 kts | 162° |
| 2026-05-04 18:28 | 33.87035 | -118.55355 | 8180 ft | 295 kts | 130° |
| 2026-05-04 18:28 | 33.86206 | -118.53093 | 9011 ft | 303 kts | 97° |
| 2026-05-04 18:28 | 33.86447 | -118.50585 | 9804 ft | 308 kts | 65° |
| 2026-05-04 18:29 | 33.87674 | -118.48456 | 10344 ft | 319 kts | 43° |
| 2026-05-04 18:29 | 33.89398 | -118.46593 | 10607 ft | 340 kts | 35° |
| 2026-05-04 18:29 | 33.91331 | -118.44868 | 11110 ft | 351 kts | 33° |
| 2026-05-04 18:29 | 33.93238 | -118.42971 | 11805 ft | 360 kts | 43° |
| 2026-05-04 18:30 | 33.96385 | -118.38149 | 13221 ft | 372 kts | 54° |
| 2026-05-04 18:30 | 33.97857 | -118.35555 | 13910 ft | 378 kts | 56° |
| 2026-05-04 18:30 | 33.99322 | -118.32877 | 14479 ft | 386 kts | 56° |
| 2026-05-04 18:31 | 34.00803 | -118.30150 | 15096 ft | 392 kts | 56° |
| 2026-05-04 18:31 | 34.02318 | -118.27384 | 15642 ft | 399 kts | 56° |
| 2026-05-04 18:31 | 34.03899 | -118.24538 | 16232 ft | 404 kts | 55° |
| 2026-05-04 18:31 | 34.05570 | -118.21570 | 16838 ft | 410 kts | 55° |
| 2026-05-04 18:32 | 34.07188 | -118.18723 | 17384 ft | 417 kts | 54° |
| 2026-05-04 18:32 | 34.08635 | -118.16190 | 17862 ft | 422 kts | 54° |
| 2026-05-04 18:32 | 34.10270 | -118.13353 | 18380 ft | 428 kts | 54° |
| 2026-05-04 18:32 | 34.12063 | -118.10272 | 18898 ft | 434 kts | 55° |
| 2026-05-04 18:33 | 34.13770 | -118.07254 | 19386 ft | 439 kts | 56° |
| 2026-05-04 18:33 | 34.15487 | -118.04172 | 19833 ft | 445 kts | 56° |
| 2026-05-04 18:33 | 34.17221 | -118.01044 | 20324 ft | 450 kts | 56° |
| 2026-05-04 18:33 | 34.18975 | -117.97887 | 20817 ft | 456 kts | 56° |
| 2026-05-04 18:34 | 34.20754 | -117.94696 | 21328 ft | 460 kts | 56° |
| 2026-05-04 18:34 | 34.22561 | -117.91470 | 21816 ft | 466 kts | 56° |
| 2026-05-04 18:34 | 34.24393 | -117.88213 | 22241 ft | 471 kts | 56° |
| 2026-05-04 18:34 | 34.26243 | -117.84923 | 22767 ft | 475 kts | 56° |
| 2026-05-04 18:35 | 34.28109 | -117.81596 | 23265 ft | 480 kts | 56° |
| 2026-05-04 18:35 | 34.29995 | -117.78234 | 23728 ft | 485 kts | 56° |
| 2026-05-04 18:35 | 34.31916 | -117.74805 | 24134 ft | 491 kts | 56° |
| 2026-05-04 18:35 | 34.33850 | -117.71349 | 24528 ft | 495 kts | 56° |
| 2026-05-04 18:36 | 34.35790 | -117.67896 | 24883 ft | 499 kts | 55° |
| 2026-05-04 18:36 | 34.37797 | -117.64432 | 25213 ft | 504 kts | 54° |
| 2026-05-04 18:36 | 34.39855 | -117.60984 | 25513 ft | 508 kts | 53° |
| 2026-05-04 18:36 | 34.41961 | -117.57513 | 25833 ft | 513 kts | 53° |
| 2026-05-04 18:37 | 34.44082 | -117.54030 | 26151 ft | 517 kts | 53° |
| 2026-05-04 18:37 | 34.46213 | -117.50512 | 26595 ft | 518 kts | 54° |
| 2026-05-04 18:37 | 34.48337 | -117.46974 | 26897 ft | 521 kts | 54° |
| 2026-05-04 18:37 | 34.50459 | -117.43406 | 27024 ft | 520 kts | 54° |
| 2026-05-04 18:38 | 34.52536 | -117.39890 | 27046 ft | 508 kts | 54° |
| 2026-05-04 18:38 | 34.54695 | -117.36230 | 27045 ft | 504 kts | 54° |
| 2026-05-04 18:38 | 34.56735 | -117.32776 | 27045 ft | 503 kts | 54° |
| 2026-05-04 18:38 | 34.58771 | -117.29328 | 27045 ft | 502 kts | 54° |
| 2026-05-04 18:39 | 34.60808 | -117.25888 | 27040 ft | 502 kts | 54° |
| 2026-05-04 18:39 | 34.62847 | -117.22443 | 27029 ft | 502 kts | 54° |
| 2026-05-04 18:39 | 34.64885 | -117.18999 | 27018 ft | 502 kts | 54° |
| 2026-05-04 18:39 | 34.66921 | -117.15552 | 26942 ft | 503 kts | 54° |
| 2026-05-04 18:40 | 34.68964 | -117.12084 | 26959 ft | 505 kts | 54° |
| 2026-05-04 18:40 | 34.71006 | -117.08610 | 26954 ft | 505 kts | 54° |
| 2026-05-04 18:40 | 34.73048 | -117.05141 | 26955 ft | 505 kts | 54° |
| 2026-05-04 18:40 | 34.75098 | -117.01657 | 26955 ft | 505 kts | 54° |
| 2026-05-04 18:41 | 34.77141 | -116.98179 | 26956 ft | 505 kts | 54° |
| 2026-05-04 18:41 | 34.78492 | -116.95877 | 26962 ft | 505 kts | 54° |
| 2026-05-04 18:41 | 34.81215 | -116.91222 | 26969 ft | 505 kts | 54° |
| 2026-05-04 18:41 | 34.82593 | -116.88861 | 27013 ft | 505 kts | 54° |
| 2026-05-04 18:42 | 34.84623 | -116.85382 | 26982 ft | 504 kts | 54° |
| 2026-05-04 18:42 | 34.86651 | -116.81906 | 26983 ft | 504 kts | 54° |
| 2026-05-04 18:42 | 34.88684 | -116.78421 | 26982 ft | 504 kts | 54° |
| 2026-05-04 18:42 | 34.90707 | -116.74955 | 26831 ft | 499 kts | 54° |
| 2026-05-04 18:43 | 34.92706 | -116.71530 | 26580 ft | 493 kts | 54° |
| 2026-05-04 18:43 | 34.94663 | -116.68128 | 26330 ft | 489 kts | 55° |
| 2026-05-04 18:43 | 34.96589 | -116.64728 | 26078 ft | 486 kts | 56° |
| 2026-05-04 18:43 | 34.98490 | -116.61340 | 25832 ft | 483 kts | 56° |
| 2026-05-04 18:44 | 35.00374 | -116.57966 | 25589 ft | 480 kts | 56° |
| 2026-05-04 18:44 | 35.01691 | -116.55605 | 25405 ft | 478 kts | 56° |
| 2026-05-04 18:44 | 35.04182 | -116.51152 | 25077 ft | 473 kts | 55° |
| 2026-05-04 18:44 | 35.06036 | -116.47851 | 24844 ft | 470 kts | 55° |
| 2026-05-04 18:45 | 35.07881 | -116.44571 | 24607 ft | 468 kts | 55° |
| 2026-05-04 18:45 | 35.09732 | -116.41317 | 24377 ft | 464 kts | 52° |
| 2026-05-04 18:45 | 35.11821 | -116.38332 | 24149 ft | 460 kts | 44° |
| 2026-05-04 18:45 | 35.14028 | -116.35508 | 23926 ft | 458 kts | 44° |
| 2026-05-04 18:46 | 35.16212 | -116.32693 | 23717 ft | 455 kts | 44° |
| 2026-05-04 18:46 | 35.18376 | -116.29887 | 23480 ft | 453 kts | 44° |
| 2026-05-04 18:46 | 35.20527 | -116.27093 | 23207 ft | 449 kts | 44° |
| 2026-05-04 18:46 | 35.22655 | -116.24324 | 22945 ft | 444 kts | 45° |
| 2026-05-04 18:47 | 35.24739 | -116.21562 | 22669 ft | 441 kts | 45° |
| 2026-05-04 18:47 | 35.26787 | -116.18777 | 22404 ft | 439 kts | 46° |
| 2026-05-04 18:47 | 35.28832 | -116.15952 | 22140 ft | 436 kts | 46° |
| 2026-05-04 18:47 | 35.30833 | -116.13169 | 21889 ft | 435 kts | 47° |
| 2026-05-04 18:48 | 35.32829 | -116.10401 | 21637 ft | 430 kts | 46° |
| 2026-05-04 18:48 | 35.34805 | -116.07674 | 21224 ft | 427 kts | 46° |
| 2026-05-04 18:48 | 35.36774 | -116.04962 | 20771 ft | 425 kts | 46° |
| 2026-05-04 18:48 | 35.38740 | -116.02258 | 20330 ft | 423 kts | 47° |
| 2026-05-04 18:49 | 35.40695 | -115.99567 | 19873 ft | 422 kts | 47° |
| 2026-05-04 18:49 | 35.42639 | -115.96891 | 19422 ft | 420 kts | 47° |
| 2026-05-04 18:49 | 35.44586 | -115.94213 | 18963 ft | 419 kts | 47° |
| 2026-05-04 18:49 | 35.46520 | -115.91549 | 18522 ft | 417 kts | 47° |
| 2026-05-04 18:50 | 35.48445 | -115.88890 | 18043 ft | 416 kts | 47° |
| 2026-05-04 18:50 | 35.50348 | -115.86262 | 17687 ft | 410 kts | 47° |
| 2026-05-04 18:50 | 35.52231 | -115.83658 | 17249 ft | 406 kts | 47° |
| 2026-05-04 18:50 | 35.54106 | -115.81066 | 16826 ft | 403 kts | 47° |
| 2026-05-04 18:51 | 35.55957 | -115.78505 | 16400 ft | 400 kts | 48° |
| 2026-05-04 18:51 | 35.57786 | -115.75970 | 16096 ft | 393 kts | 48° |
| 2026-05-04 18:51 | 35.59571 | -115.73495 | 15982 ft | 381 kts | 48° |
| 2026-05-04 18:51 | 35.61301 | -115.71129 | 15767 ft | 364 kts | 47° |
| 2026-05-04 18:52 | 35.62983 | -115.68859 | 15272 ft | 355 kts | 47° |
| 2026-05-04 18:52 | 35.64636 | -115.66644 | 14969 ft | 350 kts | 47° |
| 2026-05-04 18:52 | 35.66275 | -115.64450 | 14720 ft | 346 kts | 47° |
| 2026-05-04 18:52 | 35.67889 | -115.62277 | 14481 ft | 343 kts | 47° |
| 2026-05-04 18:53 | 35.69497 | -115.60102 | 14245 ft | 342 kts | 48° |
| 2026-05-04 18:53 | 35.71131 | -115.57887 | 14013 ft | 357 kts | 48° |
| 2026-05-04 18:53 | 35.72909 | -115.55729 | 13777 ft | 360 kts | 38° |
| 2026-05-04 18:53 | 35.74994 | -115.54050 | 13520 ft | 358 kts | 28° |
| 2026-05-04 18:54 | 35.77159 | -115.52549 | 13258 ft | 356 kts | 29° |
| 2026-05-04 18:54 | 35.79340 | -115.51028 | 12990 ft | 355 kts | 29° |
| 2026-05-04 18:54 | 35.81458 | -115.49545 | 12974 ft | 353 kts | 29° |
| 2026-05-04 18:54 | 35.83584 | -115.48058 | 13013 ft | 354 kts | 29° |
| 2026-05-04 18:55 | 35.85723 | -115.46555 | 13014 ft | 355 kts | 29° |
| 2026-05-04 18:55 | 35.90015 | -115.43531 | 13022 ft | 355 kts | 29° |
| 2026-05-04 18:55 | 35.92163 | -115.42018 | 12808 ft | 357 kts | 29° |
| 2026-05-04 18:56 | 35.94322 | -115.40505 | 12469 ft | 352 kts | 29° |
| 2026-05-04 18:56 | 35.96418 | -115.39040 | 12282 ft | 338 kts | 29° |
| 2026-05-04 18:56 | 35.98425 | -115.37549 | 11702 ft | 330 kts | 39° |
| 2026-05-04 18:56 | 35.99996 | -115.35546 | 11178 ft | 325 kts | 58° |
| 2026-05-04 18:57 | 36.00988 | -115.33079 | 10843 ft | 317 kts | 77° |
| 2026-05-04 18:57 | 36.01348 | -115.30493 | 10584 ft | 306 kts | 94° |
| 2026-05-04 18:57 | 36.01253 | -115.27783 | 10307 ft | 301 kts | 98° |
| 2026-05-04 18:57 | 36.01128 | -115.25215 | 10050 ft | 299 kts | 98° |
| 2026-05-04 18:58 | 36.00999 | -115.22625 | 9783 ft | 298 kts | 98° |
| 2026-05-04 18:58 | 36.00872 | -115.20092 | 9561 ft | 291 kts | 98° |
| 2026-05-04 18:58 | 36.00750 | -115.17642 | 9400 ft | 281 kts | 98° |
| 2026-05-04 18:58 | 36.00634 | -115.15284 | 9266 ft | 270 kts | 98° |
| 2026-05-04 18:59 | 36.00522 | -115.13017 | 9150 ft | 260 kts | 98° |
| 2026-05-04 18:59 | 36.00414 | -115.10827 | 9042 ft | 249 kts | 99° |
| 2026-05-04 18:59 | 36.00310 | -115.08725 | 8820 ft | 244 kts | 99° |
| 2026-05-04 18:59 | 36.00204 | -115.06656 | 8588 ft | 239 kts | 99° |
| 2026-05-04 19:00 | 36.00101 | -115.04643 | 8370 ft | 232 kts | 99° |
| 2026-05-04 19:00 | 35.99999 | -115.02667 | 8165 ft | 228 kts | 99° |
| 2026-05-04 19:00 | 35.99912 | -115.00764 | 8056 ft | 214 kts | 98° |
| 2026-05-04 19:00 | 35.99889 | -114.98995 | 7955 ft | 198 kts | 96° |
| 2026-05-04 19:01 | 35.99886 | -114.97320 | 7974 ft | 199 kts | 98° |
| 2026-05-04 19:01 | 35.99876 | -114.95563 | 7980 ft | 204 kts | 97° |
| 2026-05-04 19:01 | 35.99968 | -114.93821 | 7974 ft | 211 kts | 82° |
| 2026-05-04 19:01 | 36.00620 | -114.92152 | 7976 ft | 219 kts | 56° |
| 2026-05-04 19:02 | 36.01773 | -114.90904 | 7981 ft | 224 kts | 32° |
| 2026-05-04 19:02 | 36.03232 | -114.90253 | 7984 ft | 225 kts | 6° |
| 2026-05-04 19:02 | 36.04257 | -114.90254 | 7983 ft | 222 kts | 348° |
| 2026-05-04 19:02 | 36.06060 | -114.91241 | 7967 ft | 213 kts | 314° |
| 2026-05-04 19:03 | 36.06726 | -114.92143 | 7966 ft | 207 kts | 296° |
| 2026-05-04 19:03 | 36.07319 | -114.93763 | 7603 ft | 204 kts | 279° |
| 2026-05-04 19:03 | 36.07598 | -114.95498 | 6919 ft | 204 kts | 268° |
| 2026-05-04 19:03 | 36.07550 | -114.97257 | 6127 ft | 206 kts | 257° |
| 2026-05-04 19:04 | 36.07350 | -114.99023 | 5318 ft | 205 kts | 255° |
| 2026-05-04 19:04 | 36.07175 | -115.00797 | 4458 ft | 210 kts | 261° |
| 2026-05-04 19:04 | 36.07187 | -115.02584 | 3840 ft | 200 kts | 271° |
| 2026-05-04 19:04 | 36.07314 | -115.04245 | 3433 ft | 187 kts | 270° |
| 2026-05-04 19:05 | 36.07368 | -115.05793 | 3103 ft | 172 kts | 265° |
| 2026-05-04 19:05 | 36.07376 | -115.07183 | 2861 ft | 153 kts | 265° |
| 2026-05-04 19:05 | 36.07370 | -115.08468 | 2618 ft | 147 kts | 264° |
| 2026-05-04 19:05 | 36.07362 | -115.09707 | 2563 ft | 141 kts | 264° |
| 2026-05-04 19:06 | 36.07388 | -115.10920 | 2368 ft | 137 kts | 263° |
| 2026-05-04 19:06 | 36.07378 | -115.12089 | 2147 ft | 136 kts | 263° |
| 2026-05-04 19:06 | 36.07365 | -115.13248 | 2070 ft | 126 kts | 267° |
| 2026-05-04 19:06 | 36.07364 | -115.14001 | 2082 ft | 44 kts | 270° |
| 2026-05-04 19:07 | 36.07363 | -115.14139 | 2084 ft | 17 kts | 269° |
| 2026-05-04 19:07 | 36.07371 | -115.14296 | 2088 ft | 18 kts | 283° |
| 2026-05-04 19:07 | 36.07407 | -115.14440 | 2091 ft | 17 kts | 288° |
| 2026-05-04 19:07 | 36.07456 | -115.14577 | 2094 ft | 16 kts | 300° |
| 2026-05-04 19:08 | 36.07525 | -115.14656 | 2098 ft | 12 kts | 350° |
| 2026-05-04 19:08 | 36.07590 | -115.14660 | 2101 ft | 9 kts | 0° |
| 2026-05-04 19:08 | 36.07689 | -115.14656 | 2100 ft | 11 kts | 0° |
| 2026-05-04 19:08 | 36.07761 | -115.14626 | 2097 ft | 12 kts | 56° |
| 2026-05-04 19:09 | 36.07765 | -115.14523 | 2097 ft | 15 kts | 95° |
| 2026-05-04 19:09 | 36.07756 | -115.14392 | 2097 ft | 15 kts | 95° |
| 2026-05-04 19:09 | 36.07770 | -115.14278 | 2096 ft | 13 kts | 48° |
| 2026-05-04 19:09 | 36.07831 | -115.14198 | 2095 ft | 12 kts | 56° |
| 2026-05-04 19:10 | 36.07897 | -115.14143 | 2094 ft | 11 kts | 27° |
| 2026-05-04 19:10 | 36.07944 | -115.14111 | 2094 ft | 0 kts | 28° |
| 2026-05-04 19:10 | 36.07953 | -115.14105 | 2094 ft | 3 kts | 29° |
| 2026-05-04 19:10 | 36.07975 | -115.14081 | 2094 ft | 6 kts | 53° |
| 2026-05-04 19:11 | 36.07995 | -115.14040 | 2094 ft | 2 kts | 60° |
| 2026-05-04 19:11 | 36.07996 | -115.14038 | 2093 ft | 0 kts | 60° |